< < Back
Terminal Aerodrome Forecast


Current Version              Previous Versions:   1  2  3  4  5  6  7  8  9  

Terminal Aerodrome Forecast

496
FTUS44 KOHX 281100
TAFCSV
TAF
KCSV 281123Z 2812/2912 35004KT P6SM FEW014
     FM281500 06005KT P6SM SKC=



Latest METAR

488
SAUS70 KWBC 282200 RRA
MTRCSV
METAR KCSV 282153Z AUTO VRB04KT 10SM CLR 06/M10 A3022 RMK AO2 SLP242
T00611100


USA.gov is the U.S. government's official web portal to all federal, state and local government web resources and services.